Time;durP1;ratioP1;P1;durP2;ratioP2;P2;SDS_P1;SDS_P2;PMS_P1;PMS_P2;Temp;Humidity;BMP_temperature;BMP_pressure;BME280_temperature;BME280_humidity;BME280_pressure;Samples;Min_cycle;Max_cycle;Signal;HPM_P1;HPM_P2
2023/09/24 00:01:28;;;;;;;;;11.00;11.00;;;;;16.41;100.00;99584.41;6282662;20;2791993;-61
2023/09/24 00:03:59;;;;;;;;;10.40;10.40;;;;;16.49;100.00;99574.75;6303745;20;2781499;-61
2023/09/24 00:06:27;;;;;;;;;10.00;9.50;;;;;16.18;100.00;99577.41;6285152;20;2771186;-59
2023/09/24 00:08:55;;;;;;;;;12.50;10.00;;;;;16.45;100.00;99577.72;6287593;20;2792063;-61
2023/09/24 00:11:25;;;;;;;;;12.00;10.00;;;;;16.41;100.00;99581.69;6279586;20;3520201;-61
2023/09/24 00:13:54;;;;;;;;;12.67;10.67;;;;;16.33;100.00;99581.50;6309556;20;3516003;-61
2023/09/24 00:16:22;;;;;;;;;9.50;9.50;;;;;16.52;100.00;99588.88;6317038;20;2766939;-60
2023/09/24 00:18:50;;;;;;;;;11.00;11.00;;;;;16.50;100.00;99584.59;6294418;20;1950405;-60
2023/09/24 00:21:17;;;;;;;;;10.00;10.00;;;;;16.25;100.00;99594.88;6283172;20;2772192;-59
2023/09/24 00:23:45;;;;;;;;;10.50;10.50;;;;;16.41;100.00;99599.81;6283261;20;2787886;-60
2023/09/24 00:26:13;;;;;;;;;12.00;10.00;;;;;16.41;100.00;99589.81;6283988;20;2783741;-62
2023/09/24 00:28:42;;;;;;;;;10.00;10.00;;;;;16.23;100.00;99580.59;6280814;20;3505546;-60
2023/09/24 00:31:10;;;;;;;;;12.00;11.00;;;;;16.37;100.00;99593.78;6314744;20;2787783;-61
2023/09/24 00:33:38;;;;;;;;;10.50;9.00;;;;;16.32;100.00;99600.59;6288303;20;2761763;-62
2023/09/24 00:36:05;;;;;;;;;12.00;10.00;;;;;16.45;100.00;99604.81;6284964;20;2788986;-61
2023/09/24 00:38:35;;;;;;;;;13.00;12.00;;;;;16.09;100.00;99613.41;6283263;20;3518091;-58
2023/09/24 00:41:04;;;;;;;;;11.67;10.00;;;;;16.07;100.00;99623.53;6309032;20;3502388;-59
2023/09/24 00:43:35;;;;;;;;;12.00;11.00;;;;;16.13;100.00;99623.00;6313482;20;2790889;-60
2023/09/24 00:46:04;;;;;;;;;11.33;11.33;;;;;16.42;100.00;99617.78;6276970;20;3512787;-60
2023/09/24 00:48:33;;;;;;;;;14.00;11.50;;;;;16.61;100.00;99614.31;6316444;20;2794121;-59
2023/09/24 00:51:29;;;;;;;;;12.00;10.50;;;;;16.34;100.00;99602.19;6283132;20;2785705;-60
2023/09/24 00:53:59;;;;;;;;;12.00;11.00;;;;;16.37;100.00;99601.06;6284066;20;2794116;-61
2023/09/24 00:56:28;;;;;;;;;11.67;11.67;;;;;16.40;100.00;99604.38;6276803;20;3515918;-61
2023/09/24 00:58:57;;;;;;;;;12.00;11.00;;;;;16.29;100.00;99601.72;6310147;20;2792082;-62
2023/09/24 01:01:25;;;;;;;;;9.50;9.50;;;;;16.38;100.00;99600.94;6313429;20;2771163;-62
2023/09/24 01:03:53;;;;;;;;;13.00;12.00;;;;;16.58;100.00;99595.63;6282167;20;2790923;-61
2023/09/24 01:06:22;;;;;;;;;12.00;12.00;;;;;16.28;100.00;99605.44;6276159;20;2792107;-61
2023/09/24 01:08:52;;;;;;;;;13.33;12.50;;;;;16.10;100.00;99604.31;6336414;20;2802396;-61
2023/09/24 01:11:21;;;;;;;;;13.67;12.00;;;;;16.36;100.00;99594.78;6308957;20;3528478;-61
2023/09/24 01:13:50;;;;;;;;;9.00;9.00;;;;;16.41;100.00;99580.84;6307016;20;2735890;-61
2023/09/24 01:16:18;;;;;;;;;11.33;10.00;;;;;16.40;100.00;99581.81;6308107;20;2763168;-61
2023/09/24 01:18:47;;;;;;;;;15.00;13.33;;;;;16.50;100.00;99593.56;6310721;20;3540966;-61
2023/09/24 01:21:18;;;;;;;;;13.00;13.00;;;;;16.49;100.00;99586.44;6307250;20;3509798;-61
2023/09/24 01:23:48;;;;;;;;;12.00;11.00;;;;;16.31;100.00;99571.81;6309184;20;3515950;-62
2023/09/24 01:26:20;;;;;;;;;12.67;12.67;;;;;16.30;100.00;99567.34;6307879;20;2799299;-61
2023/09/24 01:28:49;;;;;;;;;10.00;9.33;;;;;16.39;100.00;99567.41;6309730;20;2771058;-61
2023/09/24 01:31:18;;;;;;;;;11.67;10.33;;;;;16.40;100.00;99560.13;6306814;20;3517989;-62
2023/09/24 01:33:48;;;;;;;;;13.00;10.00;;;;;16.34;100.00;99566.97;6312956;20;2783656;-62
2023/09/24 01:36:19;;;;;;;;;12.00;12.00;;;;;16.24;100.00;99587.72;6281418;20;2799308;-62
2023/09/24 01:38:48;;;;;;;;;10.00;10.00;;;;;16.14;100.00;99584.09;6278941;20;3517934;-58
2023/09/24 01:41:19;;;;;;;;;15.00;13.00;;;;;16.21;100.00;99578.00;6280415;20;2812164;-61
2023/09/24 01:43:48;;;;;;;;;11.67;11.67;;;;;16.12;100.00;99583.38;6309008;20;3516956;-61
2023/09/24 01:46:20;;;;;;;;;11.00;11.00;;;;;16.36;100.00;99580.38;6274670;20;3516042;-62
2023/09/24 01:48:50;;;;;;;;;16.67;13.33;;;;;16.30;100.00;99583.63;6306934;20;3539854;-61
2023/09/24 01:51:20;;;;;;;;;12.00;12.00;;;;;16.30;100.00;99587.19;6309322;20;2483558;-59
2023/09/24 01:53:48;;;;;;;;;11.00;11.00;;;;;16.32;100.00;99596.03;6282765;20;2787725;-61
2023/09/24 01:56:18;;;;;;;;;12.50;11.50;;;;;16.23;100.00;99586.00;6279558;20;2794094;-62
2023/09/24 01:58:46;;;;;;;;;11.00;11.00;;;;;16.35;100.00;99584.94;6284618;20;2789903;-61
2023/09/24 02:01:14;;;;;;;;;13.00;11.00;;;;;16.35;100.00;99601.22;6281199;20;2794219;-61
2023/09/24 02:03:46;;;;;;;;;12.00;12.00;;;;;16.21;100.00;99594.25;6275434;20;3516278;-62
2023/09/24 02:06:16;;;;;;;;;12.33;11.00;;;;;16.11;100.00;99587.06;6309844;20;2785981;-62
2023/09/24 02:08:44;;;;;;;;;12.33;11.00;;;;;16.29;100.00;99590.88;6316289;20;3514923;-61
2023/09/24 02:11:13;;;;;;;;;12.50;12.00;;;;;16.38;100.00;99594.66;6314675;20;2785703;-60
2023/09/24 02:13:43;;;;;;;;;11.20;11.20;;;;;16.45;100.00;99591.25;6309366;20;2796113;-62
2023/09/24 02:16:12;;;;;;;;;11.00;10.67;;;;;16.28;100.00;99589.19;6281420;20;2784682;-61
2023/09/24 02:18:40;;;;;;;;;10.00;10.00;;;;;16.37;100.00;99591.06;6320193;20;2789860;-62
2023/09/24 02:21:17;;;;;;;;;12.00;10.50;;;;;16.40;100.00;99588.13;6290700;20;2783597;-62
2023/09/24 02:23:45;;;;;;;;;14.00;12.50;;;;;16.25;100.00;99586.75;6289525;20;2786805;-62
2023/09/24 02:26:13;;;;;;;;;12.00;11.50;;;;;15.88;100.00;99587.19;6284277;20;2790033;-62
2023/09/24 02:28:42;;;;;;;;;10.50;10.00;;;;;15.86;100.00;99594.59;6287959;20;2786858;-62
2023/09/24 02:31:12;;;;;;;;;11.50;11.50;;;;;15.88;100.00;99592.63;6284198;20;2788823;-62
2023/09/24 02:33:41;;;;;;;;;13.67;13.00;;;;;15.87;100.00;99596.28;6284386;20;3522533;-61
2023/09/24 02:36:11;;;;;;;;;13.67;10.67;;;;;16.24;100.00;99588.59;6311597;20;2788920;-60
2023/09/24 02:38:39;;;;;;;;;11.33;11.33;;;;;16.34;100.00;99587.78;6314702;20;3514828;-61
2023/09/24 02:41:11;;;;;;;;;11.20;10.20;;;;;16.38;100.00;99584.69;6339364;20;2796196;-60
2023/09/24 02:43:39;;;;;;;;;12.33;12.33;;;;;16.27;100.00;99581.16;6285415;20;3539832;-61
2023/09/24 02:46:08;;;;;;;;;11.67;9.67;;;;;16.06;100.00;99573.06;6308931;20;2779548;-60
2023/09/24 02:48:38;;;;;;;;;12.33;10.67;;;;;16.32;100.00;99584.34;6314778;20;3515233;-60
2023/09/24 02:51:08;;;;;;;;;15.00;10.00;;;;;16.46;100.00;99575.88;6316201;20;2789997;-61
2023/09/24 02:53:38;;;;;;;;;16.67;11.67;;;;;16.43;100.00;99571.59;6280207;20;2798334;-60
2023/09/24 02:56:07;;;;;;;;;10.00;10.00;;;;;16.38;100.00;99575.69;6310252;20;2784853;-60
2023/09/24 02:58:35;;;;;;;;;10.67;10.00;;;;;16.38;100.00;99564.84;6311420;20;3498201;-60
2023/09/24 03:01:15;;;;;;;;;11.33;11.33;;;;;16.43;100.00;99560.75;6308468;20;3512818;-60
2023/09/24 03:03:44;;;;;;;;;10.33;9.00;;;;;16.41;100.00;99562.72;6311839;20;3494075;-59
2023/09/24 03:06:13;;;;;;;;;11.00;9.67;;;;;16.46;100.00;99565.91;6307619;20;3498150;-62
2023/09/24 03:08:42;;;;;;;;;11.67;11.00;;;;;16.40;100.00;99566.44;6313490;20;2794168;-61
2023/09/24 03:11:16;;;;;;;;;12.00;11.00;;;;;16.23;100.00;99567.03;6317720;20;2786747;-61
2023/09/24 03:13:44;;;;;;;;;12.00;9.00;;;;;16.48;100.00;99578.44;6287799;20;2757578;-62
2023/09/24 03:16:12;;;;;;;;;14.00;11.00;;;;;16.39;100.00;99585.53;6285637;20;2796144;-61
2023/09/24 03:18:40;;;;;;;;;11.50;11.50;;;;;16.09;100.00;99589.03;6286464;20;2792074;-62
2023/09/24 03:21:14;;;;;;;;;12.40;10.80;;;;;16.13;100.00;99595.91;6303143;20;2789982;-62
2023/09/24 03:23:44;;;;;;;;;11.00;11.00;;;;;15.99;100.00;99600.66;6307558;20;2790937;-61
2023/09/24 03:26:16;;;;;;;;;13.00;10.00;;;;;16.10;100.00;99616.00;6280427;20;3516909;-60
2023/09/24 03:28:44;;;;;;;;;9.50;9.50;;;;;16.35;100.00;99612.06;6319207;20;2764851;-61
2023/09/24 03:31:16;;;;;;;;;10.33;10.33;;;;;16.02;100.00;99619.38;6281673;20;2789912;-61
2023/09/24 03:33:44;;;;;;;;;12.67;11.33;;;;;15.97;100.00;99629.72;6311846;20;3522127;-61
2023/09/24 03:36:13;;;;;;;;;10.00;10.00;;;;;16.12;100.00;99626.72;6310933;20;3522138;-60
2023/09/24 03:38:41;;;;;;;;;9.50;9.50;;;;;16.42;100.00;99636.75;6316235;20;2759747;-61
2023/09/24 03:41:09;;;;;;;;;13.50;12.00;;;;;16.19;100.00;99627.88;6287111;20;2796211;-62
2023/09/24 03:43:38;;;;;;;;;10.00;10.00;;;;;16.22;100.00;99633.06;6281918;20;3522166;-59
2023/09/24 03:46:06;;;;;;;;;9.00;9.00;;;;;16.25;100.00;99632.81;6316624;20;2764902;-58
2023/09/24 03:48:36;;;;;;;;;11.60;10.20;;;;;16.08;100.00;99625.25;6305872;20;2773290;-59
2023/09/24 03:51:04;;;;;;;;;10.00;10.00;;;;;16.15;100.00;99621.03;6278606;20;2779475;-60
2023/09/24 03:53:32;;;;;;;;;11.00;10.00;;;;;16.13;100.00;99618.44;6318195;20;2784724;-61
2023/09/24 03:56:01;;;;;;;;;9.33;9.00;;;;;16.41;100.00;99625.06;6277299;20;3475248;-60
2023/09/24 03:58:29;;;;;;;;;11.00;10.00;;;;;16.17;100.00;99613.66;6312403;20;2794080;-61
2023/09/24 04:01:08;;;;;;;;;8.60;7.60;;;;;16.25;100.00;99605.72;6340476;20;2756538;-59
2023/09/24 04:03:37;;;;;;;;;11.00;9.33;;;;;16.10;100.00;99607.88;6280806;20;3504962;-61
2023/09/24 04:06:11;;;;;;;;;11.67;9.67;;;;;16.12;100.00;99607.75;6311086;20;2781563;-59
2023/09/24 04:08:39;;;;;;;;;10.33;8.67;;;;;16.34;100.00;99604.03;6309619;20;2764881;-60
2023/09/24 04:11:13;;;;;;;;;22.00;19.00;;;;;16.52;100.00;99601.59;6310716;20;2483631;-61
2023/09/24 04:13:42;;;;;;;;;14.00;13.00;;;;;16.49;100.00;99610.00;6279249;20;2800323;-61
2023/09/24 04:16:12;;;;;;;;;15.00;13.50;;;;;16.53;100.00;99604.13;6283736;20;2789334;-61
2023/09/24 04:18:44;;;;;;;;;10.00;8.50;;;;;16.17;100.00;99605.50;6284301;20;2760851;-62
2023/09/24 04:21:18;;;;;;;;;9.80;8.60;;;;;16.24;100.00;99614.81;6310555;20;2739895;-62
2023/09/24 04:23:46;;;;;;;;;12.50;11.00;;;;;16.30;100.00;99621.53;6284981;20;2789901;-60
2023/09/24 04:26:23;;;;;;;;;10.00;10.00;;;;;16.37;100.00;99631.72;6277238;20;2790136;-62
2023/09/24 04:28:55;;;;;;;;;10.67;9.00;;;;;16.56;100.00;99630.13;6311319;20;3485703;-61
2023/09/24 04:31:24;;;;;;;;;10.67;10.67;;;;;16.40;100.00;99631.47;6309840;20;3513836;-61
2023/09/24 04:33:52;;;;;;;;;9.00;9.00;;;;;16.46;100.00;99627.38;6320717;20;2744038;-61
2023/09/24 04:36:22;;;;;;;;;14.67;10.33;;;;;16.40;100.00;99626.06;6278568;20;2788812;-61
2023/09/24 04:38:52;;;;;;;;;10.00;10.00;;;;;16.11;100.00;99635.81;6312846;20;2789960;-60
2023/09/24 04:41:21;;;;;;;;;12.00;9.00;;;;;16.24;100.00;99648.19;6310193;20;3483647;-59
2023/09/24 04:43:52;;;;;;;;;12.33;10.33;;;;;16.43;100.00;99649.31;6312495;20;3514279;-61
2023/09/24 04:46:22;;;;;;;;;9.20;9.20;;;;;16.19;100.00;99650.44;6332625;20;2771105;-61
2023/09/24 04:48:52;;;;;;;;;11.00;9.00;;;;;16.32;100.00;99644.81;6299863;20;2776465;-61
2023/09/24 04:51:20;;;;;;;;;11.50;11.00;;;;;16.22;100.00;99635.78;6285960;20;2796142;-60
2023/09/24 04:53:48;;;;;;;;;11.00;8.00;;;;;16.30;100.00;99635.09;6280236;20;2762984;-62
2023/09/24 04:56:18;;;;;;;;;9.40;7.00;;;;;16.17;100.00;99635.31;6303183;20;2763991;-61
2023/09/24 04:58:47;;;;;;;;;7.60;5.00;;;;;16.24;100.00;99637.38;6303272;20;2744111;-61
2023/09/24 05:01:16;;;;;;;;;5.00;3.67;;;;;16.18;100.00;99637.88;6310855;20;2752357;-61
2023/09/24 05:03:44;;;;;;;;;3.00;2.00;;;;;15.99;100.00;99641.28;6316251;20;2736774;-62
2023/09/24 05:06:12;;;;;;;;;5.00;4.00;;;;;15.82;100.00;99652.69;6285949;20;2750279;-61
2023/09/24 05:08:40;;;;;;;;;5.00;4.00;;;;;15.91;100.00;99662.75;6289827;20;2627368;-61
2023/09/24 05:11:14;;;;;;;;;5.00;4.00;;;;;16.09;100.00;99659.47;6283652;20;2754505;-60
2023/09/24 05:13:41;;;;;;;;;3.00;3.00;;;;;15.90;100.00;99655.59;6285379;20;2756535;-61
2023/09/24 05:16:09;;;;;;;;;3.50;2.50;;;;;15.85;100.00;99644.31;6280902;20;2753417;-60
2023/09/24 05:18:37;;;;;;;;;3.00;3.00;;;;;15.64;100.00;99648.78;6285771;20;2751323;-61
2023/09/24 05:21:15;;;;;;;;;3.00;3.00;;;;;15.59;100.00;99646.47;6282075;20;2756525;-61
2023/09/24 05:23:46;;;;;;;;;1.00;1.00;;;;;15.55;100.00;99645.00;6284970;20;2726348;-60
2023/09/24 05:26:15;;;;;;;;;2.00;2.00;;;;;15.59;100.00;99660.00;6284585;20;2739865;-60
2023/09/24 05:28:43;;;;;;;;;4.00;2.50;;;;;15.43;100.00;99673.94;6283240;20;2754417;-61
2023/09/24 05:31:11;;;;;;;;;3.50;2.50;;;;;15.44;100.00;99672.94;6284278;20;2745069;-61
2023/09/24 05:33:39;;;;;;;;;1.50;1.50;;;;;15.46;100.00;99657.44;6284562;20;2730525;-61
2023/09/24 05:36:08;;;;;;;;;3.00;2.00;;;;;15.49;100.00;99662.59;6281602;20;2750289;-61
2023/09/24 05:38:36;;;;;;;;;2.00;2.00;;;;;15.41;100.00;99665.09;6286406;20;2735685;-61
2023/09/24 05:41:06;;;;;;;;;3.00;1.00;;;;;15.36;100.00;99673.56;6291147;20;2734683;-62
2023/09/24 05:43:35;;;;;;;;;2.50;2.50;;;;;15.36;100.00;99678.13;6287127;20;2751368;-60
2023/09/24 05:46:03;;;;;;;;;3.00;1.00;;;;;15.28;100.00;99676.03;6288122;20;2735705;-60
2023/09/24 05:48:31;;;;;;;;;2.00;2.00;;;;;15.32;100.00;99676.63;6290189;20;2742367;-63
2023/09/24 05:51:04;;;;;;;;;1.00;1.00;;;;;15.18;100.00;99675.06;6290236;20;2731574;-60
2023/09/24 05:53:32;;;;;;;;;3.00;1.00;;;;;15.29;100.00;99682.31;6290476;20;2732560;-63
2023/09/24 05:56:03;;;;;;;;;2.00;2.00;;;;;15.08;100.00;99666.81;6286046;20;2742668;-61
2023/09/24 05:58:30;;;;;;;;;2.00;1.00;;;;;15.21;100.00;99674.81;6289560;20;2722160;-62
2023/09/24 06:00:58;;;;;;;;;1.00;1.00;;;;;15.08;100.00;99669.53;6291421;20;2724950;-59
2023/09/24 06:03:26;;;;;;;;;2.00;2.00;;;;;15.08;100.00;99671.38;6286688;20;2756822;-60
2023/09/24 06:05:54;;;;;;;;;1.50;1.50;;;;;15.07;100.00;99677.78;6288405;20;2725757;-60
2023/09/24 06:08:22;;;;;;;;;2.00;2.00;;;;;15.17;100.00;99689.59;6286147;20;2751425;-60
2023/09/24 06:10:52;;;;;;;;;1.00;0.00;;;;;15.22;100.00;99690.06;6289601;20;2727389;-60
2023/09/24 06:13:20;;;;;;;;;1.00;1.00;;;;;15.33;100.00;99702.72;6291685;20;2728434;-60
2023/09/24 06:15:48;;;;;;;;;1.50;1.50;;;;;15.26;100.00;99705.06;6289498;20;2735769;-62
2023/09/24 06:18:16;;;;;;;;;3.00;3.00;;;;;15.66;100.00;99706.34;6287526;20;2744505;-64
2023/09/24 06:20:44;;;;;;;;;1.00;1.00;;;;;15.68;100.00;99710.66;6290402;20;2724257;-63
2023/09/24 06:23:12;;;;;;;;;3.00;2.00;;;;;15.86;100.00;99713.72;6292342;20;2739925;-61
2023/09/24 06:25:41;;;;;;;;;4.00;2.33;;;;;15.72;100.00;99717.59;6288884;20;2756533;-61
2023/09/24 06:28:09;;;;;;;;;3.33;2.00;;;;;15.66;100.00;99725.28;6316259;20;2753478;-61
2023/09/24 06:30:38;;;;;;;;;3.00;2.00;;;;;15.56;100.00;99731.47;6317211;20;2756529;-62
2023/09/24 06:33:07;;;;;;;;;3.00;3.00;;;;;15.64;100.00;99735.38;6310959;20;2756625;-62
2023/09/24 06:35:38;;;;;;;;;2.00;2.00;;;;;15.58;100.00;99732.19;6318143;20;2735721;-62
2023/09/24 06:38:06;;;;;;;;;4.00;2.00;;;;;15.38;100.00;99730.28;6316170;20;2752360;-62
2023/09/24 06:40:38;;;;;;;;;3.00;2.00;;;;;15.18;100.00;99725.59;6290068;20;2753409;-63
2023/09/24 06:43:06;;;;;;;;;3.00;3.00;;;;;15.25;100.00;99724.13;6287875;20;2752372;-60
2023/09/24 06:45:36;;;;;;;;;3.00;3.00;;;;;15.56;100.00;99728.78;6282324;20;2752435;-62
2023/09/24 06:48:04;;;;;;;;;2.00;2.00;;;;;15.83;100.00;99730.22;6285608;20;2754595;-61
2023/09/24 06:50:34;;;;;;;;;6.00;2.00;;;;;15.86;100.00;99732.69;6286941;20;2753509;-60
2023/09/24 06:53:02;;;;;;;;;2.50;2.00;;;;;15.76;100.00;99745.25;6317773;20;2748231;-61
2023/09/24 06:55:30;;;;;;;;;4.00;2.50;;;;;15.95;100.00;99750.00;6280596;20;2756537;-62
2023/09/24 06:57:58;;;;;;;;;1.50;1.50;;;;;16.02;100.00;99746.66;6278015;20;2755583;-61
2023/09/24 07:00:26;;;;;;;;;3.00;3.00;;;;;15.87;100.00;99753.34;6284745;20;2756546;-62
2023/09/24 07:02:54;;;;;;;;;8.00;3.50;;;;;15.58;100.00;99759.25;6286808;20;2750337;-62
2023/09/24 07:05:22;;;;;;;;;3.50;3.00;;;;;15.51;100.00;99752.66;6282397;20;2740915;-61
2023/09/24 07:07:51;;;;;;;;;5.00;3.00;;;;;15.40;100.00;99760.75;6286940;20;2737800;-62
2023/09/24 07:10:22;;;;;;;;;5.00;4.00;;;;;15.54;100.00;99762.34;6285577;20;2747289;-62
2023/09/24 07:12:52;;;;;;;;;3.50;1.00;;;;;15.97;100.00;99764.28;6284961;20;2734774;-62
2023/09/24 07:15:20;;;;;;;;;5.00;3.00;;;;;16.00;100.00;99759.47;6281925;20;2741966;-61
2023/09/24 07:17:48;;;;;;;;;2.50;2.50;;;;;15.99;100.00;99768.59;6284649;20;2752425;-62
2023/09/24 07:20:16;;;;;;;;;4.00;4.00;;;;;15.71;100.00;99774.53;6286606;20;2754574;-62
2023/09/24 07:22:44;;;;;;;;;2.50;2.50;;;;;15.75;100.00;99776.88;6283414;20;2756569;-59
2023/09/24 07:25:12;;;;;;;;;4.00;3.00;;;;;15.65;100.00;99775.03;6285227;20;2751325;-58
2023/09/24 07:27:41;;;;;;;;;3.00;3.00;;;;;16.07;100.00;99775.22;6286115;20;2736778;-61
2023/09/24 07:30:09;;;;;;;;;5.00;4.00;;;;;15.88;100.00;99775.88;6281793;20;2756585;-61
2023/09/24 07:32:37;;;;;;;;;4.00;4.00;;;;;15.86;100.00;99783.25;6282739;20;2756589;-59
2023/09/24 07:35:09;;;;;;;;;4.60;4.60;;;;;16.04;100.00;99780.91;6307957;20;2742000;-61
2023/09/24 07:37:39;;;;;;;;;6.00;6.00;;;;;15.83;100.00;99786.22;6283445;20;2750281;-61
2023/09/24 07:40:10;;;;;;;;;5.60;5.60;;;;;15.67;100.00;99797.41;6336212;20;2752405;-60
2023/09/24 07:42:39;;;;;;;;;7.40;7.00;;;;;15.94;100.00;99797.03;6332804;20;2738853;-59
2023/09/24 07:45:13;;;;;;;;;4.80;2.80;;;;;16.08;100.00;99804.88;6337339;20;2745522;-61
2023/09/24 07:47:41;;;;;;;;;6.00;5.00;;;;;16.02;100.00;99805.38;6310392;20;2748209;-61
2023/09/24 07:50:11;;;;;;;;;5.60;4.20;;;;;16.02;100.00;99811.66;6306008;20;2748216;-61
2023/09/24 07:52:40;;;;;;;;;3.00;3.00;;;;;16.06;100.00;99816.81;6335836;20;2735704;-61
2023/09/24 07:55:09;;;;;;;;;4.00;4.00;;;;;16.23;100.00;99816.28;6314267;20;2750518;-61
2023/09/24 07:57:38;;;;;;;;;4.00;4.00;;;;;15.96;100.00;99806.75;6283451;20;2756587;-66
2023/09/24 08:00:08;;;;;;;;;3.00;3.00;;;;;16.23;100.00;99813.59;6307873;20;2748209;-61
2023/09/24 08:02:37;;;;;;;;;3.00;3.00;;;;;16.04;100.00;99814.25;6311394;20;2729564;-61
2023/09/24 08:05:08;;;;;;;;;3.00;3.00;;;;;16.30;100.00;99808.50;6338922;20;2744073;-60
2023/09/24 08:07:37;;;;;;;;;3.50;3.00;;;;;16.19;100.00;99817.53;6316568;20;2745209;-59
2023/09/24 08:10:05;;;;;;;;;5.00;3.50;;;;;16.24;100.00;99823.41;6290662;20;2736749;-61
2023/09/24 08:12:34;;;;;;;;;4.00;4.00;;;;;16.26;100.00;99829.56;6284759;20;2748169;-60
2023/09/24 08:15:04;;;;;;;;;4.00;4.00;;;;;16.29;100.00;99823.03;6284599;20;2756658;-57
2023/09/24 08:17:34;;;;;;;;;3.00;3.00;;;;;16.30;100.00;99825.66;6305634;20;2735799;-61
2023/09/24 08:20:03;;;;;;;;;4.67;4.00;;;;;16.14;100.00;99836.88;6310996;20;2751329;-60
2023/09/24 08:22:32;;;;;;;;;4.00;4.00;;;;;16.38;100.00;99831.28;6310613;20;2749250;-60
2023/09/24 08:25:02;;;;;;;;;4.20;4.20;;;;;16.40;100.00;99826.59;6332691;20;2745094;-61
2023/09/24 08:27:30;;;;;;;;;6.00;4.00;;;;;16.26;100.00;99834.16;6281600;20;2748262;-57
2023/09/24 08:29:57;;;;;;;;;6.00;4.00;;;;;16.47;100.00;99824.22;6276207;20;2751309;-59
2023/09/24 08:32:26;;;;;;;;;6.00;5.50;;;;;16.35;100.00;99822.53;6280260;20;2745090;-60
2023/09/24 08:34:54;;;;;;;;;3.00;3.00;;;;;16.38;100.00;99834.00;6281295;20;2752393;-61
2023/09/24 08:37:23;;;;;;;;;5.00;4.00;;;;;16.49;100.00;99827.66;6313306;20;2746304;-61
2023/09/24 08:39:51;;;;;;;;;5.33;5.00;;;;;16.62;100.00;99824.78;6313557;20;2748245;-60
2023/09/24 08:42:21;;;;;;;;;7.20;5.60;;;;;16.76;100.00;99827.19;6333898;20;2727380;-61
2023/09/24 08:45:18;;;;;;;;;5.50;4.00;;;;;16.59;100.00;99842.16;6305296;20;2756621;-61
2023/09/24 08:47:48;;;;;;;;;4.00;4.00;;;;;16.38;100.00;99839.41;6282339;20;2756562;-61
2023/09/24 08:50:16;;;;;;;;;6.33;5.00;;;;;16.41;100.00;99841.00;6310297;20;2747170;-60
2023/09/24 08:52:46;;;;;;;;;6.00;6.00;;;;;16.43;100.00;99837.19;6310356;20;2752365;-61
2023/09/24 08:55:15;;;;;;;;;6.00;5.00;;;;;16.32;100.00;99836.34;6282650;20;2747194;-61
2023/09/24 08:57:45;;;;;;;;;4.00;4.00;;;;;16.20;100.00;99830.94;6280826;20;2752391;-61
2023/09/24 09:00:15;;;;;;;;;4.50;4.50;;;;;16.33;100.00;99825.38;6287240;20;2750261;-62
2023/09/24 09:02:43;;;;;;;;;6.50;5.00;;;;;16.28;100.00;99821.34;6285498;20;2745099;-61
2023/09/24 09:05:25;;;;;;;;;10.50;7.50;;;;;16.43;100.00;99815.50;6282996;20;2765930;-61
2023/09/24 09:07:59;;;;;;;;;12.00;12.00;;;;;16.24;100.00;99815.28;6279340;20;3525415;-61
2023/09/24 09:10:34;;;;;;;;;7.50;7.50;;;;;16.42;100.00;99793.94;6313974;20;2735723;-58
2023/09/24 09:13:08;;;;;;;;;11.67;11.67;;;;;16.38;100.00;99796.06;6280025;20;3551387;-62
2023/09/24 09:15:40;;;;;;;;;6.00;6.00;;;;;16.41;100.00;99789.50;6314649;20;2734664;-60
2023/09/24 09:18:26;;;;;;;;;8.00;8.00;;;;;16.46;100.00;99790.84;6286222;20;2744478;-61
2023/09/24 09:21:01;;;;;;;;;7.00;6.67;;;;;16.87;100.00;99791.88;6290286;20;2743075;-61
2023/09/24 09:23:42;;;;;;;;;13.29;13.29;;;;;17.12;100.00;99789.78;6323117;20;3523217;-57
2023/09/24 09:26:10;;;;;;;;;10.67;10.67;;;;;17.06;100.00;99790.28;6279121;20;2792032;-60
2023/09/24 09:28:40;;;;;;;;;4.60;4.60;;;;;16.98;100.00;99787.38;6339308;20;2748260;-59
2023/09/24 09:31:12;;;;;;;;;6.00;6.00;;;;;17.41;100.00;99794.50;6338129;20;2746239;-62
2023/09/24 09:33:44;;;;;;;;;7.00;7.00;;;;;17.42;100.00;99783.50;6313003;20;3447203;-60
2023/09/24 09:36:30;;;;;;;;;17.33;16.17;;;;;18.05;100.00;99794.19;6338262;20;3577435;-61
2023/09/24 09:39:00;;;;;;;;;7.20;6.20;;;;;17.60;100.00;99797.28;6305287;20;2734810;-61
2023/09/24 09:41:33;;;;;;;;;9.33;9.33;;;;;17.27;100.00;99820.13;6310997;20;2773293;-62
2023/09/24 09:44:07;;;;;;;;;13.50;13.00;;;;;17.65;100.00;99829.47;6315524;20;2797185;-60
2023/09/24 09:46:46;;;;;;;;;7.60;6.00;;;;;17.61;100.00;99839.72;6302443;20;2733698;-59
2023/09/24 09:49:21;;;;;;;;;3.40;3.40;;;;;17.81;100.00;99835.28;6338642;20;2737549;-61
2023/09/24 09:51:57;;;;;;;;;3.67;3.67;;;;;17.97;100.00;99824.75;6317471;20;2754447;-61
2023/09/24 09:54:36;;;;;;;;;4.00;4.00;;;;;17.50;100.00;99818.97;6312084;20;2756555;-59
2023/09/24 09:57:06;;;;;;;;;3.00;3.00;;;;;17.33;100.00;99825.88;6340216;20;2752392;-61
2023/09/24 09:59:37;;;;;;;;;5.60;5.60;;;;;17.65;100.00;99824.91;6306264;20;2747151;-60
2023/09/24 10:02:08;;;;;;;;;6.40;6.00;;;;;17.47;100.00;99832.81;6308241;20;2741016;-61
2023/09/24 10:04:37;;;;;;;;;5.00;3.67;;;;;17.67;100.00;99822.91;6316969;20;2750276;-61
2023/09/24 10:07:08;;;;;;;;;3.67;3.67;;;;;18.18;100.00;99832.81;6311812;20;2756542;-60
2023/09/24 10:09:39;;;;;;;;;2.67;2.67;;;;;17.66;100.00;99842.03;6316856;20;2736837;-62
2023/09/24 10:12:09;;;;;;;;;4.00;3.00;;;;;17.62;100.00;99846.91;6334353;20;2735706;-61
2023/09/24 10:14:42;;;;;;;;;5.40;5.40;;;;;17.80;100.00;99839.00;6337102;20;2745067;-62
2023/09/24 10:17:25;;;;;;;;;5.80;4.80;;;;;17.62;100.00;99833.31;6337257;20;2743064;-62
2023/09/24 10:20:06;;;;;;;;;3.00;3.00;;;;;17.58;100.00;99829.16;6311554;20;2742995;-62
2023/09/24 10:22:39;;;;;;;;;4.00;3.00;;;;;18.03;100.00;99842.34;6316562;20;2738902;-60
2023/09/24 10:25:34;;;;;;;;;2.43;2.43;;;;;17.80;100.00;99838.13;6356335;20;3456582;-62
2023/09/24 10:28:08;;;;;;;;;4.40;3.40;;;;;17.77;100.00;99848.25;6334357;20;2748252;-62
2023/09/24 10:31:06;;;;;;;;;2.80;2.00;;;;;17.40;100.00;99852.47;6338779;20;2744038;-61
2023/09/24 10:34:03;;;;;;;;;2.00;2.00;;;;;17.55;100.00;99857.44;6312284;20;2748510;-62
2023/09/24 10:36:34;;;;;;;;;7.80;6.00;;;;;17.74;100.00;99853.94;6338161;20;2744064;-60
2023/09/24 10:39:08;;;;;;;;;3.00;3.00;;;;;17.47;100.00;99849.09;6314480;20;2745132;-60
2023/09/24 10:42:09;;;;;;;;;2.67;2.67;;;;;17.65;100.00;99862.91;6316506;20;2745218;-62
2023/09/24 10:44:39;;;;;;;;;5.00;5.00;;;;;17.74;100.00;99847.66;6315745;20;2740022;-62
2023/09/24 10:47:33;;;;;;;;;3.00;3.00;;;;;17.84;100.00;99856.75;6335137;20;2731562;-62
2023/09/24 10:50:17;;;;;;;;;2.00;2.00;;;;;17.89;99.29;99859.06;6339332;20;2744160;-61
2023/09/24 10:52:55;;;;;;;;;2.40;2.40;;;;;17.69;99.73;99852.63;6339154;20;2747170;-62
2023/09/24 10:55:30;;;;;;;;;3.00;3.00;;;;;17.93;99.82;99855.03;6312521;20;2738829;-62
2023/09/24 10:58:03;;;;;;;;;2.40;2.00;;;;;17.74;100.00;99859.38;6340380;20;2756591;-62
2023/09/24 11:00:35;;;;;;;;;2.00;2.00;;;;;17.78;99.56;99860.84;6284505;20;2750378;-54
2023/09/24 11:03:07;;;;;;;;;2.67;2.33;;;;;17.65;100.00;99856.63;6317739;20;2741034;-62
2023/09/24 11:05:40;;;;;;;;;4.20;3.40;;;;;17.68;100.00;99864.50;6341284;20;2735845;-61
2023/09/24 11:08:13;;;;;;;;;6.40;6.40;;;;;18.15;99.54;99864.88;6338085;20;2739860;-60
2023/09/24 11:10:50;;;;;;;;;4.60;4.60;;;;;18.13;100.00;99865.00;6338237;20;2743159;-61
2023/09/24 11:13:25;;;;;;;;;5.40;5.40;;;;;18.13;100.00;99867.69;6308130;20;2743018;-59
2023/09/24 11:15:54;;;;;;;;;14.00;11.33;;;;;17.83;99.63;99859.59;6309901;20;3519050;-59
2023/09/24 11:18:25;;;;;;;;;13.33;12.00;;;;;17.90;98.55;99858.03;6313345;20;2788889;-62
2023/09/24 11:20:54;;;;;;;;;2.00;2.00;;;;;17.78;99.01;99849.13;6317495;20;2746402;-60